Time;durP1;ratioP1;P1;durP2;ratioP2;P2;SDS_P1;SDS_P2;PMS_P1;PMS_P2;Temp;Humidity;BMP_temperature;BMP_pressure;BME280_temperature;BME280_humidity;BME280_pressure;Samples;Min_cycle;Max_cycle;Signal;HPM_P1;HPM_P2
2023/07/17 00:00:12;;;;;;;8.07;5.15;;;18.50;63.80;;;;;;5118899;27;20043;-72
2023/07/17 00:02:41;;;;;;;7.63;5.43;;;18.40;63.80;;;;;;5120077;27;20062;-70
2023/07/17 00:05:09;;;;;;;8.45;5.05;;;18.40;64.00;;;;;;5121055;27;20071;-71
2023/07/17 00:07:36;;;;;;;10.02;4.88;;;18.40;64.00;;;;;;5122721;27;20051;-72
2023/07/17 00:10:04;;;;;;;7.93;5.43;;;18.40;64.10;;;;;;5120642;27;20039;-72
2023/07/17 00:12:31;;;;;;;7.13;4.88;;;18.30;64.20;;;;;;5120503;27;20473;-71
2023/07/17 00:14:58;;;;;;;7.85;4.75;;;18.40;64.20;;;;;;5117346;27;20130;-71
2023/07/17 00:17:25;;;;;;;9.48;5.90;;;18.40;64.30;;;;;;5117050;27;20410;-71
2023/07/17 00:19:59;;;;;;;9.40;6.03;;;18.30;64.50;;;;;;5114444;27;20046;-71
2023/07/17 00:22:26;;;;;;;9.27;6.15;;;18.20;64.90;;;;;;5111881;27;20155;-71
2023/07/17 00:24:54;;;;;;;9.07;6.32;;;18.20;64.90;;;;;;5115872;27;20044;-72
2023/07/17 00:27:21;;;;;;;8.70;6.38;;;18.10;65.00;;;;;;5118690;27;20040;-72
2023/07/17 00:29:48;;;;;;;8.75;6.13;;;18.10;65.10;;;;;;5122010;27;20050;-72
2023/07/17 00:32:15;;;;;;;8.65;6.28;;;18.10;65.40;;;;;;5114357;27;20058;-73
2023/07/17 00:34:43;;;;;;;9.20;5.63;;;18.10;65.50;;;;;;5117421;27;20062;-72
2023/07/17 00:37:12;;;;;;;10.20;6.63;;;18.00;65.50;;;;;;5118845;27;20490;-71
2023/07/17 00:39:39;;;;;;;10.70;6.10;;;18.00;65.30;;;;;;5114790;27;20039;-71
2023/07/17 00:42:06;;;;;;;9.98;5.95;;;18.00;65.00;;;;;;5097347;27;20044;-71
2023/07/17 00:44:35;;;;;;;9.35;6.35;;;18.00;64.90;;;;;;5114881;27;20050;-73
2023/07/17 00:47:03;;;;;;;8.57;5.90;;;18.00;65.20;;;;;;5095380;27;20044;-72
2023/07/17 00:49:30;;;;;;;8.27;5.47;;;17.90;65.30;;;;;;5110741;27;20056;-72
2023/07/17 00:51:59;;;;;;;9.43;6.13;;;17.90;65.40;;;;;;5115932;27;20138;-70
2023/07/17 00:54:29;;;;;;;10.13;5.68;;;17.90;65.50;;;;;;5118752;27;20163;-72
2023/07/17 00:56:59;;;;;;;9.63;6.35;;;17.90;65.50;;;;;;5116004;27;20050;-72
2023/07/17 00:59:26;;;;;;;9.00;5.85;;;17.80;65.60;;;;;;5119268;27;20047;-71
2023/07/17 01:01:55;;;;;;;9.13;5.90;;;17.80;65.70;;;;;;5115625;27;20052;-72
2023/07/17 01:04:21;;;;;;;10.20;6.28;;;17.80;65.80;;;;;;5114363;27;20080;-72
2023/07/17 01:06:48;;;;;;;8.02;5.15;;;17.70;65.90;;;;;;5094793;27;20051;-72
2023/07/17 01:09:17;;;;;;;9.32;5.65;;;17.80;65.70;;;;;;5097746;27;20162;-72
2023/07/17 01:11:45;;;;;;;7.38;5.32;;;17.70;65.80;;;;;;5113761;27;20036;-72
2023/07/17 01:14:16;;;;;;;9.90;5.97;;;17.60;66.10;;;;;;5117387;27;20461;-71
2023/07/17 01:16:44;;;;;;;9.18;5.97;;;17.60;66.30;;;;;;5087862;27;20059;-72
2023/07/17 01:19:11;;;;;;;9.25;6.43;;;17.50;66.70;;;;;;5108074;27;20039;-72
2023/07/17 01:21:42;;;;;;;9.13;5.93;;;17.40;66.70;;;;;;5099548;27;20048;-72
2023/07/17 01:24:10;;;;;;;8.75;6.25;;;17.50;66.70;;;;;;5107919;27;20043;-73
2023/07/17 01:26:37;;;;;;;9.75;6.97;;;17.50;66.70;;;;;;5114581;27;20055;-72
2023/07/17 01:29:04;;;;;;;10.75;6.45;;;17.40;66.80;;;;;;5113451;27;20052;-72
2023/07/17 01:31:31;;;;;;;8.88;5.82;;;17.40;66.80;;;;;;5115886;27;20047;-72
2023/07/17 01:33:58;;;;;;;9.13;6.10;;;17.40;67.00;;;;;;5117214;27;20069;-71
2023/07/17 01:36:26;;;;;;;9.73;6.47;;;17.40;67.10;;;;;;5098544;27;20055;-71
2023/07/17 01:38:54;;;;;;;9.27;6.45;;;17.40;67.10;;;;;;5106088;27;20051;-71
2023/07/17 01:41:23;;;;;;;10.57;6.53;;;17.50;67.20;;;;;;5095733;27;20142;-72
2023/07/17 01:43:50;;;;;;;8.47;6.17;;;17.50;67.10;;;;;;5101810;27;20048;-71
2023/07/17 01:46:17;;;;;;;11.20;6.50;;;17.50;67.10;;;;;;5099780;27;20523;-72
2023/07/17 01:48:44;;;;;;;8.63;6.55;;;17.30;67.10;;;;;;5110202;27;20043;-71
2023/07/17 01:51:12;;;;;;;9.27;5.53;;;17.30;67.20;;;;;;5103859;27;20047;-72
2023/07/17 01:53:39;;;;;;;8.32;5.68;;;17.10;67.40;;;;;;5115065;27;20046;-72
2023/07/17 01:56:06;;;;;;;8.93;5.50;;;17.10;67.30;;;;;;5113757;27;20057;-72
2023/07/17 01:58:34;;;;;;;7.63;5.28;;;17.10;67.30;;;;;;5111380;27;20048;-72
2023/07/17 02:01:01;;;;;;;7.93;5.57;;;17.10;67.50;;;;;;5117473;27;20055;-71
2023/07/17 02:03:28;;;;;;;10.52;6.07;;;17.10;67.50;;;;;;5093555;28;20513;-71
2023/07/17 02:05:55;;;;;;;8.00;5.60;;;17.10;67.60;;;;;;5100381;27;20066;-69
2023/07/17 02:08:22;;;;;;;9.73;5.68;;;17.00;67.80;;;;;;5113253;27;20474;-71
2023/07/17 02:10:51;;;;;;;9.88;5.95;;;17.00;67.70;;;;;;5105524;27;20785;-72
2023/07/17 02:13:21;;;;;;;10.83;6.73;;;17.00;67.80;;;;;;5112734;27;20040;-73
2023/07/17 02:15:52;;;;;;;9.95;6.47;;;17.00;67.90;;;;;;5097925;27;21012;-72
2023/07/17 02:18:19;;;;;;;10.80;5.93;;;16.90;68.00;;;;;;5114708;27;20062;-72
2023/07/17 02:20:49;;;;;;;8.95;5.55;;;16.90;68.20;;;;;;5115497;27;20513;-72
2023/07/17 02:23:16;;;;;;;;;;;16.80;68.40;;;;;;5098443;27;20051;-72
2023/07/17 02:25:43;;;;;;;11.10;6.10;;;16.80;68.40;;;;;;5112053;27;19923;-72
2023/07/17 02:28:10;;;;;;;9.00;6.32;;;16.80;68.50;;;;;;5113257;27;20538;-73
2023/07/17 02:30:37;;;;;;;8.90;5.75;;;16.70;68.70;;;;;;5113695;27;20053;-72
2023/07/17 02:33:05;;;;;;;10.40;6.40;;;16.70;68.90;;;;;;5113381;27;20052;-72
2023/07/17 02:35:32;;;;;;;11.20;6.25;;;16.60;69.00;;;;;;5116001;27;20092;-70
2023/07/17 02:37:59;;;;;;;9.68;6.25;;;16.60;69.10;;;;;;5115430;27;20043;-71
2023/07/17 02:40:26;;;;;;;9.15;6.35;;;16.60;69.20;;;;;;5085515;27;20506;-71
2023/07/17 02:42:54;;;;;;;11.65;6.97;;;16.60;69.20;;;;;;5103914;27;20047;-72
2023/07/17 02:45:20;;;;;;;8.95;6.60;;;16.60;69.30;;;;;;5116283;27;20502;-70
2023/07/17 02:47:47;;;;;;;11.20;7.20;;;16.60;69.50;;;;;;5094948;27;20051;-71
2023/07/17 02:50:16;;;;;;;11.35;6.90;;;16.60;69.40;;;;;;5116425;27;20062;-72
2023/07/17 02:53:01;;;;;;;8.30;6.15;;;16.60;69.50;;;;;;5096143;28;20754;-71
2023/07/17 02:55:29;;;;;;;8.35;5.78;;;16.50;69.50;;;;;;5116061;27;20039;-71
2023/07/17 02:57:56;;;;;;;9.88;5.95;;;16.50;69.60;;;;;;5114034;27;20035;-70
2023/07/17 03:00:23;;;;;;;11.23;6.57;;;16.40;69.80;;;;;;5111103;27;20039;-71
2023/07/17 03:02:50;;;;;;;10.20;6.15;;;16.40;69.90;;;;;;5092587;28;20620;-72
2023/07/17 03:05:18;;;;;;;10.07;6.53;;;16.50;69.70;;;;;;5113618;27;20150;-71
2023/07/17 03:07:46;;;;;;;9.85;6.20;;;16.50;69.40;;;;;;5090968;28;20043;-71
2023/07/17 03:10:14;;;;;;;11.63;6.55;;;16.50;69.50;;;;;;5110002;27;20141;-71
2023/07/17 03:12:41;;;;;;;10.57;6.45;;;16.40;69.70;;;;;;5113215;27;20047;-71
2023/07/17 03:15:10;;;;;;;9.57;6.63;;;16.30;69.80;;;;;;5091511;27;20064;-72
2023/07/17 03:17:38;;;;;;;10.10;6.47;;;16.30;70.00;;;;;;5096925;27;20128;-71
2023/07/17 03:20:08;;;;;;;10.10;6.82;;;16.40;69.70;;;;;;5093307;28;20075;-71
2023/07/17 03:22:37;;;;;;;8.82;6.20;;;16.40;69.50;;;;;;5096572;28;20528;-71
2023/07/17 03:25:06;;;;;;;11.35;6.60;;;16.30;69.60;;;;;;5112089;27;20054;-71
2023/07/17 03:27:33;;;;;;;9.60;6.70;;;16.30;69.80;;;;;;5112633;28;20544;-72
2023/07/17 03:30:00;;;;;;;8.48;6.65;;;16.30;69.90;;;;;;5087613;28;20078;-70
2023/07/17 03:32:27;;;;;;;9.75;6.95;;;16.20;70.00;;;;;;5096475;28;20047;-71
2023/07/17 03:34:54;;;;;;;11.07;6.63;;;16.20;70.10;;;;;;5114329;28;20073;-70
2023/07/17 03:37:21;;;;;;;9.85;6.30;;;16.10;70.20;;;;;;5112370;27;20073;-71
2023/07/17 03:39:49;;;;;;;8.88;6.35;;;16.10;70.40;;;;;;5096287;28;20054;-71
2023/07/17 03:42:16;;;;;;;9.70;6.97;;;16.10;70.50;;;;;;5113474;28;20047;-71
2023/07/17 03:44:43;;;;;;;7.95;6.00;;;16.10;70.40;;;;;;5092765;28;20056;-71
2023/07/17 03:47:10;;;;;;;9.65;6.10;;;16.10;70.40;;;;;;5089546;28;20542;-71
2023/07/17 03:49:38;;;;;;;10.80;6.70;;;16.10;70.30;;;;;;5106271;28;20474;-70
2023/07/17 03:52:06;;;;;;;9.20;5.72;;;16.10;70.20;;;;;;5095504;28;20075;-70
2023/07/17 03:54:33;;;;;;;9.88;6.22;;;16.10;70.30;;;;;;5112349;28;20040;-70
2023/07/17 03:57:01;;;;;;;12.40;6.25;;;16.10;70.50;;;;;;5095807;28;20053;-71
2023/07/17 03:59:29;;;;;;;9.02;6.00;;;16.00;70.60;;;;;;5087231;28;20047;-71
2023/07/17 04:01:56;;;;;;;9.45;5.93;;;16.00;70.80;;;;;;5110963;28;20497;-70
2023/07/17 04:04:23;;;;;;;11.65;6.38;;;16.00;70.90;;;;;;5095307;28;20053;-71
2023/07/17 04:06:50;;;;;;;11.00;6.57;;;15.90;70.80;;;;;;5096291;28;20075;-71
2023/07/17 04:09:17;;;;;;;10.30;6.40;;;15.90;70.60;;;;;;5115138;28;20446;-71
2023/07/17 04:11:45;;;;;;;8.32;5.50;;;16.00;70.60;;;;;;5116315;27;20588;-70
2023/07/17 04:14:16;;;;;;;11.68;7.30;;;15.90;70.70;;;;;;5114898;27;20066;-72
2023/07/17 04:16:43;;;;;;;11.50;7.00;;;15.90;70.90;;;;;;5098772;27;20141;-71
2023/07/17 04:19:10;;;;;;;12.30;7.05;;;15.90;70.90;;;;;;5118918;27;20047;-72
2023/07/17 04:21:37;;;;;;;9.07;6.40;;;16.00;70.80;;;;;;5093080;27;20049;-71
2023/07/17 04:24:05;;;;;;;9.63;6.40;;;16.10;70.70;;;;;;5098702;27;20044;-72
2023/07/17 04:26:42;;;;;;;10.70;6.32;;;16.00;70.80;;;;;;5099218;27;20497;-70
2023/07/17 04:29:10;;;;;;;9.77;7.30;;;16.00;70.70;;;;;;5100785;27;20516;-71
2023/07/17 04:31:39;;;;;;;9.60;7.03;;;16.00;70.80;;;;;;5106447;27;20043;-71
2023/07/17 04:34:06;;;;;;;9.35;7.00;;;16.10;70.70;;;;;;5099731;27;20052;-70
2023/07/17 04:36:33;;;;;;;9.15;6.75;;;16.10;70.80;;;;;;5099985;27;20047;-70
2023/07/17 04:39:00;;;;;;;8.43;6.40;;;16.00;71.00;;;;;;5097288;27;20051;-71
2023/07/17 04:41:27;;;;;;;9.50;6.45;;;16.00;71.00;;;;;;5096199;27;20041;-69
2023/07/17 04:43:54;;;;;;;10.63;6.63;;;16.00;71.10;;;;;;5117747;27;20055;-71
2023/07/17 04:46:21;;;;;;;11.93;6.53;;;16.00;71.10;;;;;;5091657;27;20044;-71
2023/07/17 04:48:49;;;;;;;9.77;6.50;;;16.10;71.00;;;;;;5093612;27;20700;-70
2023/07/17 04:51:16;;;;;;;8.95;6.32;;;16.20;70.70;;;;;;5098292;27;20103;-71
2023/07/17 04:53:43;;;;;;;9.13;7.22;;;16.20;70.50;;;;;;5110288;27;20043;-71
2023/07/17 04:56:10;;;;;;;10.80;7.30;;;16.20;70.30;;;;;;5120507;27;20115;-71
2023/07/17 04:58:37;;;;;;;10.57;6.80;;;16.30;70.00;;;;;;5100394;27;20538;-72
2023/07/17 05:01:05;;;;;;;12.65;7.50;;;16.30;70.30;;;;;;5101240;27;20087;-70
2023/07/17 05:03:33;;;;;;;11.80;7.40;;;16.30;70.30;;;;;;5100575;27;20043;-70
2023/07/17 05:06:02;;;;;;;10.27;6.95;;;16.30;70.40;;;;;;5101649;27;20055;-70
2023/07/17 05:08:29;;;;;;;12.13;7.43;;;16.20;70.40;;;;;;5117099;27;20043;-71
2023/07/17 05:10:56;;;;;;;12.45;7.38;;;16.30;70.50;;;;;;5116541;27;20100;-70
2023/07/17 05:13:27;;;;;;;10.27;6.45;;;16.30;70.40;;;;;;5109372;27;20043;-71
2023/07/17 05:15:56;;;;;;;10.57;6.72;;;16.30;70.40;;;;;;5115438;27;20501;-71
2023/07/17 05:18:23;;;;;;;9.45;6.63;;;16.40;70.50;;;;;;5117352;27;20055;-70
2023/07/17 05:20:52;;;;;;;10.13;6.40;;;16.40;70.20;;;;;;5099554;27;20051;-71
2023/07/17 05:23:20;;;;;;;10.82;6.70;;;16.40;70.30;;;;;;5097964;27;20122;-71
2023/07/17 05:25:55;;;;;;;8.35;5.93;;;16.40;70.50;;;;;;5089028;27;20494;-71
2023/07/17 05:28:24;;;;;;;10.93;6.70;;;16.50;70.00;;;;;;5089477;27;20482;-72
2023/07/17 05:30:52;;;;;;;10.70;6.53;;;16.60;69.80;;;;;;5105824;27;20110;-71
2023/07/17 05:33:20;;;;;;;9.38;6.25;;;16.60;69.40;;;;;;5108519;27;20047;-69
2023/07/17 05:35:46;;;;;;;10.35;6.38;;;16.60;69.70;;;;;;5117616;27;20039;-71
2023/07/17 05:38:14;;;;;;;10.27;6.35;;;16.70;69.60;;;;;;5099129;27;20408;-72
2023/07/17 05:40:42;;;;;;;10.98;6.47;;;16.70;69.50;;;;;;5116276;27;20040;-71
2023/07/17 05:43:09;;;;;;;13.20;5.97;;;16.80;69.40;;;;;;5099307;27;20101;-70
2023/07/17 05:45:40;;;;;;;11.75;6.13;;;16.80;69.30;;;;;;5099285;27;20413;-72
2023/07/17 05:48:07;;;;;;;9.50;6.25;;;16.80;69.40;;;;;;5099294;27;20179;-70
2023/07/17 05:50:34;;;;;;;9.73;6.05;;;16.80;69.60;;;;;;5119468;27;20078;-70
2023/07/17 05:53:03;;;;;;;11.20;6.53;;;16.80;69.60;;;;;;5117716;27;20058;-69
2023/07/17 05:55:30;;;;;;;9.88;6.68;;;16.80;69.70;;;;;;5112865;27;20494;-70
2023/07/17 05:57:58;;;;;;;11.02;6.55;;;16.80;69.70;;;;;;5096948;27;20054;-71
2023/07/17 06:00:25;;;;;;;9.93;6.53;;;16.90;69.50;;;;;;5091318;27;20131;-71
2023/07/17 06:02:52;;;;;;;10.10;6.25;;;17.00;69.50;;;;;;5094298;27;20055;-71
2023/07/17 06:05:20;;;;;;;10.93;6.72;;;17.10;69.30;;;;;;5117384;27;20457;-71
2023/07/17 06:07:47;;;;;;;9.32;6.60;;;17.10;69.30;;;;;;5117611;27;20074;-72
2023/07/17 06:10:13;;;;;;;11.45;6.55;;;17.10;69.40;;;;;;5117914;27;20051;-72
2023/07/17 06:12:40;;;;;;;10.85;6.60;;;17.10;69.50;;;;;;5117229;27;20056;-73
2023/07/17 06:15:11;;;;;;;9.48;6.20;;;17.10;69.30;;;;;;5110932;27;20481;-71
2023/07/17 06:17:38;;;;;;;12.45;6.97;;;17.10;69.40;;;;;;5115051;27;20047;-71
2023/07/17 06:20:08;;;;;;;14.65;7.45;;;17.10;69.70;;;;;;5114235;27;20462;-70
2023/07/17 06:22:35;;;;;;;13.48;9.00;;;17.20;69.40;;;;;;5090804;27;20464;-71
2023/07/17 06:25:02;;;;;;;14.90;9.27;;;17.30;69.20;;;;;;5118057;27;20043;-71
2023/07/17 06:27:29;;;;;;;17.42;10.77;;;17.30;69.30;;;;;;5115702;27;20059;-71
2023/07/17 06:29:56;;;;;;;14.27;9.68;;;17.40;69.10;;;;;;5114996;27;20078;-70
2023/07/17 06:32:25;;;;;;;14.50;10.18;;;17.40;68.70;;;;;;5112638;27;20045;-72
2023/07/17 06:34:52;;;;;;;18.48;10.88;;;17.50;69.60;;;;;;5117537;27;20043;-72
2023/07/17 06:37:18;;;;;;;14.93;9.85;;;17.50;68.70;;;;;;5117671;27;20543;-72
2023/07/17 06:39:45;;;;;;;14.15;8.80;;;17.60;68.60;;;;;;5116976;27;20054;-72
2023/07/17 06:42:12;;;;;;;11.25;7.70;;;17.70;68.40;;;;;;5117039;27;20056;-71
2023/07/17 06:44:40;;;;;;;15.30;7.70;;;17.90;68.60;;;;;;5094890;27;20402;-72
2023/07/17 06:47:07;;;;;;;12.18;7.22;;;18.10;68.40;;;;;;5116038;27;20050;-72
2023/07/17 06:49:35;;;;;;;11.32;7.25;;;18.20;68.50;;;;;;5116182;27;20039;-72
2023/07/17 06:52:03;;;;;;;10.90;6.78;;;18.40;68.00;;;;;;5117393;27;20529;-72
2023/07/17 06:54:30;;;;;;;12.23;7.85;;;18.60;67.40;;;;;;5118261;27;20067;-71
2023/07/17 06:56:57;;;;;;;11.55;7.63;;;18.80;67.20;;;;;;5095119;27;20047;-70
2023/07/17 06:59:26;;;;;;;9.52;6.45;;;19.00;67.00;;;;;;5115805;27;20043;-72
2023/07/17 07:01:54;;;;;;;10.20;6.72;;;19.10;66.70;;;;;;5114853;27;20055;-71
2023/07/17 07:04:21;;;;;;;9.07;5.93;;;19.30;66.50;;;;;;5110087;27;20051;-71
2023/07/17 07:06:49;;;;;;;9.85;5.75;;;19.50;66.10;;;;;;5107710;27;20047;-71
2023/07/17 07:09:16;;;;;;;8.35;5.35;;;19.60;66.40;;;;;;5114257;27;20096;-71
2023/07/17 07:11:43;;;;;;;10.20;6.18;;;19.80;65.90;;;;;;5115241;27;20047;-72
2023/07/17 07:14:10;;;;;;;11.07;5.80;;;20.00;65.50;;;;;;5117548;27;20043;-71
2023/07/17 07:16:36;;;;;;;8.82;5.38;;;20.20;65.30;;;;;;5115122;27;20063;-72
2023/07/17 07:19:03;;;;;;;8.15;5.53;;;20.40;64.70;;;;;;5115688;27;20050;-72
2023/07/17 07:21:30;;;;;;;11.70;5.10;;;20.60;64.20;;;;;;5116347;27;20047;-72
2023/07/17 07:23:59;;;;;;;10.18;4.80;;;20.80;64.10;;;;;;5115230;27;20055;-71
2023/07/17 07:26:26;;;;;;;10.95;5.00;;;21.00;63.60;;;;;;5112874;28;20048;-72
2023/07/17 07:28:53;;;;;;;9.63;4.70;;;21.10;63.50;;;;;;5115239;28;20051;-72
2023/07/17 07:31:20;;;;;;;9.27;5.45;;;21.30;62.50;;;;;;5116802;28;20047;-72
2023/07/17 07:33:46;;;;;;;9.68;4.85;;;21.50;62.20;;;;;;5113429;28;20043;-72
2023/07/17 07:36:13;;;;;;;9.13;4.50;;;21.60;62.10;;;;;;5108949;28;20051;-72
2023/07/17 07:38:40;;;;;;;8.80;5.00;;;21.90;61.20;;;;;;5116189;28;20409;-72
2023/07/17 07:41:08;;;;;;;8.55;4.60;;;22.20;60.70;;;;;;5115395;28;20048;-72
2023/07/17 07:43:35;;;;;;;11.80;4.88;;;22.30;59.70;;;;;;5114250;28;20043;-72
2023/07/17 07:46:02;;;;;;;7.43;4.90;;;22.30;59.50;;;;;;5113349;28;20048;-72
2023/07/17 07:48:30;;;;;;;8.45;4.82;;;22.30;58.50;;;;;;5112502;27;20478;-71
2023/07/17 07:50:57;;;;;;;10.20;5.10;;;22.20;58.30;;;;;;5118910;27;20593;-72
2023/07/17 07:53:23;;;;;;;7.38;4.55;;;22.30;57.70;;;;;;5116637;27;20422;-72
2023/07/17 07:55:50;;;;;;;10.90;4.80;;;22.50;57.50;;;;;;5119680;27;20035;-72
2023/07/17 07:58:19;;;;;;;8.30;4.47;;;22.50;56.80;;;;;;5119938;27;20057;-72
2023/07/17 08:00:45;;;;;;;8.68;4.60;;;22.60;56.30;;;;;;5119727;27;20485;-67
2023/07/17 08:03:12;;;;;;;9.38;4.60;;;22.80;55.70;;;;;;5116013;27;20047;-67
2023/07/17 08:05:39;;;;;;;7.95;4.70;;;22.90;54.50;;;;;;5118238;27;20043;-68
2023/07/17 08:08:06;;;;;;;9.65;4.07;;;23.10;54.60;;;;;;5116165;27;20451;-68
2023/07/17 08:10:33;;;;;;;7.72;5.00;;;23.20;54.40;;;;;;5115534;27;20134;-67
2023/07/17 08:13:00;;;;;;;6.93;4.35;;;23.30;54.30;;;;;;5117046;27;20144;-68
2023/07/17 08:15:28;;;;;;;7.13;4.50;;;23.40;54.00;;;;;;5102626;27;20062;-68
2023/07/17 08:17:55;;;;;;;7.93;4.28;;;23.30;53.80;;;;;;5111463;27;20130;-68
2023/07/17 08:20:22;;;;;;;8.20;4.20;;;23.10;54.20;;;;;;5119611;27;20503;-68
2023/07/17 08:22:54;;;;;;;7.38;4.20;;;23.30;54.10;;;;;;5114621;27;20621;-67
2023/07/17 08:25:22;;;;;;;6.97;3.83;;;23.30;54.00;;;;;;5121398;27;20054;-67
2023/07/17 08:27:49;;;;;;;7.25;4.38;;;23.50;53.80;;;;;;5120955;27;20040;-68
2023/07/17 08:30:16;;;;;;;8.23;4.10;;;23.70;53.60;;;;;;5116425;27;20044;-67
2023/07/17 08:32:44;;;;;;;8.80;4.20;;;23.90;53.00;;;;;;5118762;27;20497;-67
2023/07/17 08:35:11;;;;;;;8.98;4.32;;;23.90;52.80;;;;;;5117902;27;20078;-67
2023/07/17 08:37:38;;;;;;;7.90;4.00;;;24.10;52.20;;;;;;5117985;27;20131;-67
2023/07/17 08:40:07;;;;;;;7.20;3.95;;;24.20;51.50;;;;;;5116458;27;20042;-67
2023/07/17 08:42:34;;;;;;;7.75;3.92;;;24.40;51.50;;;;;;5120713;27;20047;-67
2023/07/17 08:45:04;;;;;;;7.03;4.13;;;24.60;50.70;;;;;;5116604;27;20047;-68
2023/07/17 08:47:31;;;;;;;7.50;3.65;;;24.80;50.30;;;;;;5119235;27;20054;-66
2023/07/17 08:50:02;;;;;;;7.80;3.47;;;24.80;49.80;;;;;;5118240;27;20046;-67
2023/07/17 08:52:31;;;;;;;15.48;11.25;;;25.00;49.20;;;;;;5114236;27;20047;-67
2023/07/17 08:54:58;;;;;;;15.43;11.10;;;25.10;49.20;;;;;;5110822;27;20525;-67
2023/07/17 08:57:27;;;;;;;13.35;7.53;;;25.00;47.90;;;;;;5120315;27;20183;-66
2023/07/17 08:59:55;;;;;;;12.27;7.00;;;24.90;47.40;;;;;;5116405;27;20068;-67
2023/07/17 09:02:23;;;;;;;13.90;9.75;;;24.90;47.00;;;;;;5117464;27;20742;-67
2023/07/17 09:04:49;;;;;;;12.18;7.22;;;24.90;47.30;;;;;;5117810;27;20055;-68
2023/07/17 09:07:18;;;;;;;12.95;7.15;;;24.80;47.00;;;;;;5117849;27;20054;-68
2023/07/17 09:09:44;;;;;;;10.80;6.70;;;24.70;47.00;;;;;;5116443;27;20054;-67
2023/07/17 09:12:16;;;;;;;9.20;6.40;;;24.60;47.30;;;;;;5114000;27;20040;-67
2023/07/17 09:14:43;;;;;;;13.30;7.47;;;24.60;47.70;;;;;;5119483;27;20039;-66
2023/07/17 09:17:11;;;;;;;18.30;9.48;;;24.50;47.90;;;;;;5114716;27;20054;-67
2023/07/17 09:19:38;;;;;;;13.05;8.23;;;24.50;48.20;;;;;;5119316;27;20035;-67
2023/07/17 09:22:07;;;;;;;14.32;9.60;;;24.30;48.60;;;;;;5119488;27;20493;-68
2023/07/17 09:24:36;;;;;;;12.67;8.43;;;24.30;48.70;;;;;;5116728;27;20054;-67
2023/07/17 09:27:05;;;;;;;11.95;8.63;;;24.50;48.30;;;;;;5119212;27;20051;-68
2023/07/17 09:29:32;;;;;;;11.32;7.68;;;24.60;48.40;;;;;;5117510;27;20466;-68
2023/07/17 09:32:14;;;;;;;11.90;8.23;;;24.70;48.00;;;;;;5117788;27;20054;-68
2023/07/17 09:34:41;;;;;;;10.25;6.90;;;24.70;47.50;;;;;;5116973;27;20467;-67
2023/07/17 09:37:09;;;;;;;8.85;5.00;;;24.80;47.30;;;;;;5116962;27;20101;-67
2023/07/17 09:39:39;;;;;;;8.27;4.40;;;24.90;46.60;;;;;;5113893;27;20103;-67
2023/07/17 09:42:21;;;;;;;8.80;4.53;;;25.10;46.50;;;;;;5116286;27;20043;-68
2023/07/17 09:44:50;;;;;;;6.88;4.45;;;25.50;46.50;;;;;;5116108;27;20043;-68
2023/07/17 09:47:17;;;;;;;8.52;4.03;;;25.70;46.20;;;;;;5114809;27;20039;-67
2023/07/17 09:49:44;;;;;;;6.18;2.95;;;26.00;46.00;;;;;;5116496;27;20067;-66
2023/07/17 09:52:11;;;;;;;7.90;3.30;;;26.20;44.50;;;;;;5118050;27;20046;-67
2023/07/17 09:54:42;;;;;;;6.60;3.13;;;26.40;44.00;;;;;;5119053;27;20059;-68
2023/07/17 09:57:10;;;;;;;7.38;2.83;;;26.60;43.40;;;;;;5119918;27;20054;-68
2023/07/17 09:59:42;;;;;;;5.75;2.75;;;26.60;43.20;;;;;;5093670;27;20127;-67
2023/07/17 10:02:16;;;;;;;4.47;2.25;;;26.80;41.70;;;;;;5112888;27;20461;-68
2023/07/17 10:04:50;;;;;;;4.68;2.72;;;26.90;41.30;;;;;;5116086;27;20047;-67
2023/07/17 10:07:19;;;;;;;6.75;3.08;;;27.00;40.90;;;;;;5115500;27;20047;-67
2023/07/17 10:09:49;;;;;;;5.72;3.03;;;27.10;40.60;;;;;;5116344;27;20035;-68
2023/07/17 10:12:17;;;;;;;6.03;2.88;;;27.30;40.40;;;;;;5116023;27;20047;-67
2023/07/17 10:14:46;;;;;;;7.10;3.15;;;27.40;39.80;;;;;;5111044;27;20601;-68
2023/07/17 10:17:29;;;;;;;8.02;3.47;;;27.20;40.00;;;;;;5115732;27;20149;-68
2023/07/17 10:19:58;;;;;;;6.10;3.85;;;27.10;40.40;;;;;;5097121;27;20044;-68
2023/07/17 10:22:32;;;;;;;6.22;3.45;;;26.90;40.00;;;;;;5116335;27;20081;-67
2023/07/17 10:25:08;;;;;;;5.88;2.75;;;26.70;40.10;;;;;;5116036;27;20096;-67
2023/07/17 10:27:40;;;;;;;5.90;2.83;;;26.50;39.90;;;;;;5115347;27;20053;-67
2023/07/17 10:30:31;;;;;;;5.78;2.97;;;26.40;40.20;;;;;;5111060;27;20482;-67
2023/07/17 10:33:11;;;;;;;4.60;2.42;;;26.40;40.30;;;;;;5095999;27;20142;-67
2023/07/17 10:35:49;;;;;;;5.28;3.33;;;26.70;40.40;;;;;;5115695;27;20488;-68
2023/07/17 10:38:18;;;;;;;6.17;3.63;;;27.00;40.70;;;;;;5117931;27;20758;-67
2023/07/17 10:40:46;;;;;;;5.97;3.43;;;27.20;39.00;;;;;;5116267;27;20465;-67
2023/07/17 10:43:15;;;;;;;6.15;3.40;;;27.50;38.50;;;;;;5115638;27;20036;-68
2023/07/17 10:45:42;;;;;;;;;;;27.60;38.00;;;;;;5119316;27;20062;-68
2023/07/17 10:48:09;;;;;;;5.60;3.33;;;27.80;37.70;;;;;;5114533;27;19919;-67
2023/07/17 10:50:37;;;;;;;6.15;2.97;;;27.80;37.30;;;;;;5118821;27;20048;-67
2023/07/17 10:53:05;;;;;;;4.88;3.00;;;27.70;37.00;;;;;;5114427;27;20099;-67
2023/07/17 10:55:33;;;;;;;5.68;3.60;;;27.60;36.90;;;;;;5118169;27;20402;-67
2023/07/17 10:58:02;;;;;;;6.67;3.40;;;27.60;37.40;;;;;;5114825;27;20078;-66
2023/07/17 11:00:34;;;;;;;6.10;3.05;;;27.70;37.20;;;;;;5115364;27;20053;-67
2023/07/17 11:03:02;;;;;;;8.20;3.58;;;27.90;37.20;;;;;;5115938;27;20040;-67
2023/07/17 11:05:29;;;;;;;6.82;3.05;;;28.00;37.30;;;;;;5113064;27;20122;-66
2023/07/17 11:07:57;;;;;;;5.55;3.20;;;28.10;37.30;;;;;;5112516;27;20059;-66
2023/07/17 11:10:25;;;;;;;7.72;2.97;;;28.10;37.10;;;;;;5102203;27;20056;-68
2023/07/17 11:12:52;;;;;;;5.53;3.20;;;28.00;37.90;;;;;;5105393;27;20409;-68
2023/07/17 11:15:21;;;;;;;6.80;3.50;;;28.20;37.90;;;;;;5097058;27;20067;-66
2023/07/17 11:17:48;;;;;;;6.50;3.28;;;28.10;37.30;;;;;;5113131;27;20520;-67
2023/07/17 11:20:16;;;;;;;5.88;3.47;;;27.90;38.10;;;;;;5112293;28;20047;-66
2023/07/17 11:22:43;;;;;;;6.47;3.50;;;27.80;39.30;;;;;;5113010;27;20436;-68
2023/07/17 11:25:10;;;;;;;9.65;6.53;;;27.70;39.00;;;;;;5116563;27;20494;-68
2023/07/17 11:27:40;;;;;;;8.52;6.82;;;27.90;39.10;;;;;;5117848;28;20046;-68
2023/07/17 11:30:25;;;;;;;8.52;6.20;;;28.10;39.50;;;;;;5111110;28;20055;-66
2023/07/17 11:32:59;;;;;;;7.32;4.70;;;28.00;38.20;;;;;;5108818;28;20524;-67
2023/07/17 11:35:41;;;;;;;7.22;3.90;;;28.00;38.40;;;;;;5112047;28;20043;-67
2023/07/17 11:38:10;;;;;;;6.82;3.75;;;28.00;38.30;;;;;;5109648;28;20043;-68
2023/07/17 11:40:54;;;;;;;7.32;4.50;;;28.10;38.50;;;;;;5115465;27;20044;-68
2023/07/17 11:43:25;;;;;;;6.50;4.65;;;28.20;37.90;;;;;;5112851;28;20044;-68
2023/07/17 11:45:56;;;;;;;6.18;3.72;;;28.30;37.20;;;;;;5117171;28;20051;-67
2023/07/17 11:48:25;;;;;;;8.20;3.20;;;28.00;37.00;;;;;;5113016;28;20043;-67
2023/07/17 11:50:55;;;;;;;5.90;3.35;;;28.10;37.10;;;;;;5117188;28;20124;-67
2023/07/17 11:53:22;;;;;;;7.32;4.70;;;28.10;36.50;;;;;;5113002;28;20052;-67
2023/07/17 11:55:51;;;;;;;7.05;4.80;;;28.10;36.60;;;;;;5117000;28;20067;-69
2023/07/17 11:58:19;;;;;;;6.13;3.75;;;28.00;36.40;;;;;;5112783;28;20051;-68
2023/07/17 12:00:47;;;;;;;6.83;3.60;;;27.90;36.30;;;;;;5118339;27;20120;-68
2023/07/17 12:03:16;;;;;;;5.18;3.38;;;27.90;36.20;;;;;;5117098;28;20047;-67
2023/07/17 12:05:43;;;;;;;7.95;3.17;;;27.80;36.50;;;;;;5117504;27;20084;-68
2023/07/17 12:08:10;;;;;;;6.75;3.08;;;27.90;36.40;;;;;;5112425;28;20479;-68
2023/07/17 12:10:37;;;;;;;6.18;3.10;;;28.00;35.70;;;;;;5092272;28;20134;-68
2023/07/17 12:13:05;;;;;;;7.05;3.53;;;27.80;35.90;;;;;;5108843;28;20124;-67
2023/07/17 12:15:32;;;;;;;5.60;3.22;;;27.60;35.80;;;;;;5114614;28;20043;-67
2023/07/17 12:17:59;;;;;;;5.45;3.30;;;27.60;36.70;;;;;;5114947;28;20056;-68
2023/07/17 12:20:29;;;;;;;7.20;3.60;;;27.60;36.60;;;;;;5117108;28;20046;-67
2023/07/17 12:22:57;;;;;;;9.68;3.53;;;27.80;36.50;;;;;;5115574;28;20052;-67
2023/07/17 12:25:24;;;;;;;5.13;2.85;;;28.10;36.20;;;;;;5115003;28;20061;-68
2023/07/17 12:27:52;;;;;;;6.28;3.25;;;28.10;36.10;;;;;;5118226;28;20048;-68
2023/07/17 12:30:22;;;;;;;8.02;3.30;;;28.00;36.10;;;;;;5114029;28;20111;-68
2023/07/17 12:32:49;;;;;;;6.10;3.25;;;28.00;36.20;;;;;;5116414;28;20043;-68
2023/07/17 12:35:16;;;;;;;5.72;3.25;;;28.10;36.20;;;;;;5113813;27;20573;-69
2023/07/17 12:37:44;;;;;;;5.40;2.95;;;28.00;36.10;;;;;;5120263;27;20055;-67
2023/07/17 12:40:11;;;;;;;5.07;3.08;;;27.80;36.00;;;;;;5118139;27;20052;-67
2023/07/17 12:42:39;;;;;;;5.28;3.30;;;27.70;35.90;;;;;;5119184;27;20035;-67
2023/07/17 12:45:07;;;;;;;5.53;2.80;;;27.80;35.70;;;;;;5117797;27;20107;-67
2023/07/17 12:47:34;;;;;;;5.05;2.95;;;27.60;35.80;;;;;;5117457;27;20047;-67